Time;durP1;ratioP1;P1;durP2;ratioP2;P2;SDS_P1;SDS_P2;PMS_P1;PMS_P2;Temp;Humidity;BMP_temperature;BMP_pressure;BME280_temperature;BME280_humidity;BME280_pressure;Samples;Min_cycle;Max_cycle;Signal;HPM_P1;HPM_P2
2023/07/15 00:01:34;;;;;;;3.67;2.30;;;17.60;99.90;;;;;;5076539;28;20127;-65
2023/07/15 00:04:02;;;;;;;1.52;1.42;;;17.60;99.90;;;;;;5077872;28;20036;-67
2023/07/15 00:06:30;;;;;;;2.45;1.42;;;17.60;99.90;;;;;;5080452;28;20051;-65
2023/07/15 00:08:56;;;;;;;2.53;1.55;;;17.60;99.90;;;;;;5078716;28;20052;-64
2023/07/15 00:11:30;;;;;;;1.73;1.58;;;17.60;99.90;;;;;;5079819;28;20485;-64
2023/07/15 00:13:58;;;;;;;2.05;1.65;;;17.50;99.90;;;;;;5079699;28;20083;-64
2023/07/15 00:16:27;;;;;;;2.10;1.98;;;17.50;99.90;;;;;;5078469;28;20082;-64
2023/07/15 00:18:54;;;;;;;2.30;1.73;;;17.50;99.90;;;;;;5078610;28;20045;-64
2023/07/15 00:21:24;;;;;;;3.00;2.30;;;17.50;99.90;;;;;;5076722;28;20044;-64
2023/07/15 00:23:55;;;;;;;2.58;1.77;;;17.50;99.90;;;;;;5078511;28;20044;-65
2023/07/15 00:26:25;;;;;;;1.65;1.55;;;17.40;99.90;;;;;;5074127;28;20044;-65
2023/07/15 00:28:52;;;;;;;1.73;1.63;;;17.40;99.90;;;;;;5058713;28;20056;-65
2023/07/15 00:31:20;;;;;;;1.75;1.65;;;17.40;99.90;;;;;;5082943;28;20486;-65
2023/07/15 00:33:48;;;;;;;2.75;1.65;;;17.40;99.90;;;;;;5073841;28;20110;-65
2023/07/15 00:36:16;;;;;;;5.25;2.13;;;17.40;99.90;;;;;;5067158;28;20047;-64
2023/07/15 00:38:44;;;;;;;1.85;1.73;;;17.30;99.90;;;;;;5075371;28;20044;-67
2023/07/15 00:41:26;;;;;;;2.00;1.90;;;17.30;99.90;;;;;;5075800;28;20063;-64
2023/07/15 00:46:28;;;;;;;6.65;1.85;;;17.20;99.90;;;;;;5074405;28;20371;-66
2023/07/15 00:48:58;;;;;;;2.67;2.05;;;17.20;99.90;;;;;;5078540;28;20052;-66
2023/07/15 00:51:26;;;;;;;3.70;2.10;;;17.20;99.90;;;;;;5076761;28;20047;-67
2023/07/15 00:53:54;;;;;;;2.33;1.98;;;17.20;99.90;;;;;;5071735;28;20474;-64
2023/07/15 00:56:22;;;;;;;2.25;1.83;;;17.10;99.90;;;;;;5077448;28;20647;-65
2023/07/15 00:58:50;;;;;;;2.17;2.05;;;17.10;99.90;;;;;;5078624;28;20036;-64
2023/07/15 01:01:18;;;;;;;3.17;2.03;;;17.00;99.90;;;;;;5076936;28;20045;-65
2023/07/15 01:03:45;;;;;;;2.35;1.88;;;16.90;99.90;;;;;;5074291;28;20044;-64
2023/07/15 01:06:13;;;;;;;3.15;1.88;;;16.80;99.90;;;;;;5077751;28;20048;-65
2023/07/15 01:08:42;;;;;;;2.45;2.08;;;16.70;99.90;;;;;;5073491;28;20528;-64
2023/07/15 01:11:10;;;;;;;2.10;1.80;;;16.60;99.90;;;;;;5078073;28;20101;-67
2023/07/15 01:13:38;;;;;;;3.10;1.85;;;16.50;99.90;;;;;;5065666;28;20122;-64
2023/07/15 01:16:05;;;;;;;6.25;3.47;;;16.40;99.90;;;;;;5076310;28;20094;-65
2023/07/15 01:18:32;;;;;;;3.72;1.83;;;16.40;99.90;;;;;;5066298;28;20486;-64
2023/07/15 01:20:59;;;;;;;2.95;1.88;;;16.30;99.90;;;;;;5075697;28;20044;-64
2023/07/15 01:23:28;;;;;;;3.10;2.10;;;16.20;99.90;;;;;;5068434;28;20072;-65
2023/07/15 01:25:56;;;;;;;3.03;1.92;;;16.20;99.90;;;;;;5064535;28;21393;-64
2023/07/15 01:28:23;;;;;;;3.15;2.28;;;16.10;99.90;;;;;;5076772;28;20090;-64
2023/07/15 01:30:50;;;;;;;3.30;2.65;;;16.10;99.90;;;;;;5079194;28;20478;-65
2023/07/15 01:33:18;;;;;;;2.25;2.13;;;16.00;99.90;;;;;;5073121;28;20048;-64
2023/07/15 01:35:47;;;;;;;1.80;1.70;;;16.00;99.90;;;;;;5076110;28;20067;-65
2023/07/15 01:38:15;;;;;;;2.05;1.95;;;16.00;99.90;;;;;;5071667;28;20563;-65
2023/07/15 01:40:42;;;;;;;2.40;1.67;;;15.90;99.90;;;;;;5076346;28;20157;-63
2023/07/15 01:43:10;;;;;;;2.45;1.98;;;15.90;99.90;;;;;;5072932;28;20127;-65
2023/07/15 01:45:39;;;;;;;2.38;2.17;;;15.80;99.90;;;;;;5075638;28;20040;-65
2023/07/15 01:48:09;;;;;;;2.38;2.15;;;15.80;99.90;;;;;;5079285;28;20560;-65
2023/07/15 01:50:36;;;;;;;2.08;1.88;;;15.80;99.90;;;;;;5071330;28;20048;-65
2023/07/15 01:53:04;;;;;;;2.20;2.00;;;15.70;99.90;;;;;;5075350;28;20082;-67
2023/07/15 01:55:31;;;;;;;2.25;2.05;;;15.70;99.90;;;;;;5075501;28;20040;-66
2023/07/15 01:57:58;;;;;;;2.72;1.67;;;15.70;99.90;;;;;;5076558;28;20110;-65
2023/07/15 02:00:27;;;;;;;3.15;1.80;;;15.60;99.90;;;;;;5077046;28;20040;-64
2023/07/15 02:02:54;;;;;;;3.40;1.95;;;15.60;99.90;;;;;;5078164;28;20101;-67
2023/07/15 02:05:21;;;;;;;2.38;1.75;;;15.50;99.90;;;;;;5072546;28;20143;-64
2023/07/15 02:07:48;;;;;;;3.45;2.42;;;15.50;99.90;;;;;;5056927;28;20052;-64
2023/07/15 02:10:15;;;;;;;2.42;2.05;;;15.50;99.90;;;;;;5060829;28;20126;-65
2023/07/15 02:12:42;;;;;;;2.58;2.38;;;15.50;99.90;;;;;;5070229;28;20465;-65
2023/07/15 02:15:09;;;;;;;1.63;1.50;;;15.50;99.90;;;;;;5075446;28;20072;-64
2023/07/15 02:17:36;;;;;;;2.80;1.80;;;15.50;99.90;;;;;;5074323;28;20298;-67
2023/07/15 02:20:07;;;;;;;1.92;1.83;;;15.40;99.90;;;;;;5079219;28;20033;-65
2023/07/15 02:22:34;;;;;;;2.47;2.28;;;15.40;99.90;;;;;;5054249;28;20053;-64
2023/07/15 02:25:01;;;;;;;2.05;1.90;;;15.50;99.90;;;;;;5075675;28;20040;-64
2023/07/15 02:27:30;;;;;;;3.72;2.63;;;15.40;99.90;;;;;;5077661;28;20048;-63
2023/07/15 02:29:57;;;;;;;1.95;1.77;;;15.40;99.90;;;;;;5055243;28;20208;-64
2023/07/15 02:32:39;;;;;;;2.13;1.80;;;15.40;99.90;;;;;;5076774;28;20051;-66
2023/07/15 02:35:09;;;;;;;3.05;2.85;;;15.40;99.90;;;;;;5076355;28;20141;-64
2023/07/15 02:37:41;;;;;;;2.80;2.50;;;15.40;99.90;;;;;;5072487;28;20097;-67
2023/07/15 02:40:10;;;;;;;2.53;2.40;;;15.50;99.90;;;;;;5058269;28;20040;-64
2023/07/15 02:42:37;;;;;;;3.13;2.65;;;15.50;99.90;;;;;;5072256;28;20072;-67
2023/07/15 02:45:07;;;;;;;2.50;2.30;;;15.60;99.90;;;;;;5076492;28;20602;-64
2023/07/15 02:47:35;;;;;;;2.95;2.28;;;15.60;99.90;;;;;;5075989;28;20480;-65
2023/07/15 02:50:06;;;;;;;3.83;3.03;;;15.70;99.90;;;;;;5076905;28;20048;-63
2023/07/15 02:52:34;;;;;;;3.95;2.25;;;15.70;99.90;;;;;;5076615;28;20048;-64
2023/07/15 02:55:09;;;;;;;3.78;3.42;;;15.80;99.90;;;;;;5077502;28;20032;-65
2023/07/15 02:57:36;;;;;;;2.63;1.77;;;15.80;99.90;;;;;;5078812;28;20070;-65
2023/07/15 03:00:13;;;;;;;2.90;1.77;;;15.90;99.90;;;;;;5082325;28;20040;-66
2023/07/15 03:02:41;;;;;;;1.98;1.80;;;15.90;99.90;;;;;;5080468;28;20056;-64
2023/07/15 03:05:08;;;;;;;4.78;2.83;;;16.00;99.90;;;;;;5079451;28;20044;-64
2023/07/15 03:07:35;;;;;;;1.90;1.80;;;16.00;99.90;;;;;;5078420;28;20281;-65
2023/07/15 03:10:06;;;;;;;1.98;1.55;;;16.10;99.90;;;;;;5079296;28;20083;-64
2023/07/15 03:12:33;;;;;;;4.20;2.55;;;16.20;99.90;;;;;;5076824;28;20048;-65
2023/07/15 03:15:00;;;;;;;1.95;1.83;;;16.20;99.90;;;;;;5078817;28;20437;-64
2023/07/15 03:17:26;;;;;;;3.08;1.80;;;16.20;99.90;;;;;;5083332;28;20554;-64
2023/07/15 03:19:53;;;;;;;1.88;1.77;;;16.20;99.90;;;;;;5076967;28;20032;-64
2023/07/15 03:22:20;;;;;;;2.50;2.30;;;16.30;99.90;;;;;;5076005;28;20072;-64
2023/07/15 03:24:47;;;;;;;1.67;1.58;;;16.30;99.90;;;;;;5078517;28;20566;-64
2023/07/15 03:27:14;;;;;;;1.40;1.30;;;16.30;99.90;;;;;;5061788;28;20059;-64
2023/07/15 03:29:41;;;;;;;1.73;1.63;;;16.30;99.90;;;;;;5075887;28;20074;-65
2023/07/15 03:32:08;;;;;;;3.80;1.15;;;16.30;99.90;;;;;;5078476;28;20040;-65
2023/07/15 03:34:35;;;;;;;1.67;1.52;;;16.40;99.90;;;;;;5072860;28;20046;-66
2023/07/15 03:37:02;;;;;;;2.83;1.40;;;16.40;99.90;;;;;;5079322;28;20052;-64
2023/07/15 03:39:30;;;;;;;1.42;1.33;;;16.50;99.90;;;;;;5078381;28;20078;-64
2023/07/15 03:41:56;;;;;;;1.60;1.50;;;16.40;99.90;;;;;;5076367;28;20044;-66
2023/07/15 03:44:23;;;;;;;3.15;1.50;;;16.50;99.90;;;;;;5074803;28;20044;-66
2023/07/15 03:46:54;;;;;;;2.08;1.98;;;16.50;99.90;;;;;;5082603;28;20040;-63
2023/07/15 03:49:21;;;;;;;1.30;1.30;;;16.60;99.90;;;;;;5077609;28;20119;-64
2023/07/15 03:51:48;;;;;;;3.85;2.15;;;16.60;99.90;;;;;;5077997;28;20044;-63
2023/07/15 03:54:16;;;;;;;1.65;1.55;;;16.60;99.90;;;;;;5075872;28;20465;-64
2023/07/15 03:56:43;;;;;;;1.98;1.88;;;16.60;99.90;;;;;;5078252;28;20044;-64
2023/07/15 03:59:10;;;;;;;3.90;2.53;;;16.60;99.90;;;;;;5074364;28;20449;-65
2023/07/15 04:01:38;;;;;;;2.35;1.60;;;16.60;99.90;;;;;;5079301;28;20040;-65
2023/07/15 04:04:08;;;;;;;2.30;1.83;;;16.70;99.90;;;;;;5077593;28;20047;-64
2023/07/15 04:06:36;;;;;;;1.60;1.50;;;16.70;99.90;;;;;;5084783;28;20506;-64
2023/07/15 04:09:05;;;;;;;1.42;1.33;;;16.70;99.90;;;;;;5079855;28;20056;-68
2023/07/15 04:11:32;;;;;;;3.85;1.75;;;16.70;99.90;;;;;;5082281;28;20682;-65
2023/07/15 04:13:59;;;;;;;2.13;1.65;;;16.80;99.90;;;;;;5076802;28;20045;-66
2023/07/15 04:16:26;;;;;;;1.45;1.33;;;16.80;99.90;;;;;;5081675;28;20589;-66
2023/07/15 04:18:53;;;;;;;1.75;1.65;;;16.80;99.90;;;;;;5078618;28;20036;-64
2023/07/15 04:21:21;;;;;;;3.42;2.03;;;16.80;99.90;;;;;;5080147;28;20063;-64
2023/07/15 04:23:48;;;;;;;4.00;1.63;;;16.90;99.90;;;;;;5080261;28;20055;-67
2023/07/15 04:26:22;;;;;;;2.70;1.50;;;16.90;99.90;;;;;;5073798;28;20047;-63
2023/07/15 04:28:49;;;;;;;1.83;1.73;;;16.90;99.90;;;;;;5079062;28;20452;-64
2023/07/15 04:31:17;;;;;;;1.70;1.60;;;17.00;99.90;;;;;;5080344;28;20846;-64
2023/07/15 04:33:48;;;;;;;2.65;2.17;;;17.00;99.90;;;;;;5078895;28;20511;-65
2023/07/15 04:36:18;;;;;;;1.40;1.30;;;17.00;99.90;;;;;;5081141;28;20040;-64
2023/07/15 04:38:45;;;;;;;2.10;1.47;;;17.00;99.90;;;;;;5079337;28;20532;-64
2023/07/15 04:41:12;;;;;;;1.65;1.02;;;17.00;99.90;;;;;;5078422;28;21556;-64
2023/07/15 04:43:39;;;;;;;1.60;1.50;;;17.00;99.90;;;;;;5077202;28;20129;-66
2023/07/15 04:46:07;;;;;;;1.60;1.50;;;17.10;99.90;;;;;;5078853;28;20051;-64
2023/07/15 04:48:34;;;;;;;2.65;1.58;;;17.10;99.90;;;;;;5078672;28;20036;-65
2023/07/15 04:51:01;;;;;;;2.15;1.38;;;17.10;99.90;;;;;;5078518;28;20055;-65
2023/07/15 04:53:27;;;;;;;4.55;2.33;;;17.10;99.90;;;;;;5078497;28;20036;-65
2023/07/15 04:55:54;;;;;;;1.25;1.15;;;17.10;99.90;;;;;;5075320;28;20032;-65
2023/07/15 04:58:21;;;;;;;1.52;1.45;;;17.10;99.90;;;;;;5076626;28;20094;-65
2023/07/15 05:00:48;;;;;;;2.65;2.45;;;17.10;99.90;;;;;;5076579;28;20401;-63
2023/07/15 05:03:17;;;;;;;2.25;1.73;;;17.20;99.90;;;;;;5077637;28;20048;-65
2023/07/15 05:05:46;;;;;;;1.48;1.38;;;17.20;99.90;;;;;;5077966;28;20055;-66
2023/07/15 05:08:18;;;;;;;3.40;1.52;;;17.20;99.90;;;;;;5072584;28;20051;-64
2023/07/15 05:10:54;;;;;;;1.50;1.40;;;17.30;99.90;;;;;;5081007;28;20047;-64
2023/07/15 05:13:21;;;;;;;2.28;1.63;;;17.30;99.90;;;;;;5078368;28;20051;-64
2023/07/15 05:15:48;;;;;;;1.75;1.65;;;17.30;99.90;;;;;;5077162;28;20110;-64
2023/07/15 05:18:15;;;;;;;1.60;1.40;;;17.40;99.90;;;;;;5075304;28;20036;-64
2023/07/15 05:20:43;;;;;;;1.30;1.20;;;17.40;99.90;;;;;;5077647;28;20124;-66
2023/07/15 05:23:09;;;;;;;1.98;1.80;;;17.40;99.90;;;;;;5074054;28;20537;-64
2023/07/15 05:25:37;;;;;;;1.50;1.40;;;17.50;99.90;;;;;;5077460;28;20052;-65
2023/07/15 05:28:04;;;;;;;2.75;1.77;;;17.60;99.90;;;;;;5076757;28;20122;-66
2023/07/15 05:30:35;;;;;;;1.50;1.40;;;17.70;99.90;;;;;;5081205;28;20568;-64
2023/07/15 05:33:03;;;;;;;2.80;2.55;;;17.80;99.90;;;;;;5057720;28;20080;-66
2023/07/15 05:35:30;;;;;;;1.73;1.40;;;17.90;99.90;;;;;;5074790;28;20048;-66
2023/07/15 05:37:57;;;;;;;1.77;1.63;;;17.90;99.90;;;;;;5070135;28;20128;-66
2023/07/15 05:40:24;;;;;;;1.75;1.52;;;18.00;99.90;;;;;;5077144;28;20037;-64
2023/07/15 05:42:51;;;;;;;1.45;1.35;;;18.10;99.90;;;;;;5074323;28;20142;-64
2023/07/15 05:45:18;;;;;;;4.35;1.17;;;18.20;99.90;;;;;;5076115;28;20032;-67
2023/07/15 05:47:45;;;;;;;6.07;2.03;;;18.30;99.90;;;;;;5077654;28;20080;-64
2023/07/15 05:50:12;;;;;;;1.80;1.33;;;18.30;99.90;;;;;;5076458;28;20070;-65
2023/07/15 05:52:39;;;;;;;2.20;1.38;;;18.40;99.90;;;;;;5077616;28;20140;-65
2023/07/15 05:55:06;;;;;;;2.95;1.60;;;18.40;99.90;;;;;;5074776;28;20048;-63
2023/07/15 05:57:33;;;;;;;2.22;1.40;;;18.50;99.90;;;;;;5081244;28;20098;-64
2023/07/15 06:00:00;;;;;;;1.67;1.40;;;18.50;99.90;;;;;;5072223;28;20069;-66
2023/07/15 06:02:34;;;;;;;2.53;1.20;;;18.60;99.90;;;;;;5075156;28;20053;-67
2023/07/15 06:05:01;;;;;;;1.60;1.45;;;18.60;99.90;;;;;;5075929;28;20048;-67
2023/07/15 06:07:28;;;;;;;2.45;1.30;;;18.60;99.90;;;;;;5078368;28;20127;-65
2023/07/15 06:09:55;;;;;;;2.22;2.03;;;18.70;99.90;;;;;;5076663;28;20076;-67
2023/07/15 06:12:22;;;;;;;1.55;1.42;;;18.70;99.90;;;;;;5073898;28;20052;-63
2023/07/15 06:14:50;;;;;;;1.77;1.63;;;18.70;99.90;;;;;;5080294;28;20071;-65
2023/07/15 06:17:17;;;;;;;1.60;1.50;;;18.70;99.90;;;;;;5073853;28;20048;-67
2023/07/15 06:19:44;;;;;;;1.58;1.48;;;18.80;99.90;;;;;;5076630;28;20040;-64
2023/07/15 06:22:11;;;;;;;1.75;1.65;;;18.70;99.90;;;;;;5076389;28;20036;-65
2023/07/15 06:24:38;;;;;;;2.17;1.65;;;18.70;99.90;;;;;;5078982;28;20080;-65
2023/07/15 06:27:05;;;;;;;3.33;2.35;;;18.70;99.90;;;;;;5077403;28;20044;-67
2023/07/15 06:29:32;;;;;;;1.50;1.40;;;18.70;99.90;;;;;;5073746;28;20098;-64
2023/07/15 06:31:59;;;;;;;1.58;1.48;;;18.70;99.90;;;;;;5077518;28;20109;-65
2023/07/15 06:34:27;;;;;;;2.65;1.27;;;18.70;99.90;;;;;;5078413;28;20067;-65
2023/07/15 06:36:54;;;;;;;1.33;1.23;;;18.80;99.90;;;;;;5077426;28;20097;-63
2023/07/15 06:39:22;;;;;;;1.95;1.13;;;18.80;99.90;;;;;;5078859;28;20508;-67
2023/07/15 06:41:50;;;;;;;1.83;1.73;;;19.00;99.90;;;;;;5076120;28;20035;-65
2023/07/15 06:44:17;;;;;;;1.73;1.63;;;19.10;99.90;;;;;;5076396;28;20109;-65
2023/07/15 06:46:44;;;;;;;1.77;1.67;;;19.10;99.90;;;;;;5076675;28;20105;-67
2023/07/15 06:49:12;;;;;;;1.63;1.52;;;19.10;99.90;;;;;;5079492;28;20043;-65
2023/07/15 06:51:39;;;;;;;1.55;1.35;;;18.90;99.90;;;;;;5077697;28;20454;-65
2023/07/15 06:54:06;;;;;;;2.30;1.10;;;18.90;99.90;;;;;;5075948;28;20549;-67
2023/07/15 06:56:33;;;;;;;2.45;1.58;;;18.80;99.90;;;;;;5075054;28;20044;-64
2023/07/15 06:59:00;;;;;;;1.23;1.13;;;18.80;99.90;;;;;;5077166;28;20087;-66
2023/07/15 07:01:27;;;;;;;2.92;1.83;;;18.80;99.90;;;;;;5074789;28;20144;-67
2023/07/15 07:03:54;;;;;;;2.65;1.35;;;18.90;99.90;;;;;;5076190;28;20143;-64
2023/07/15 07:06:21;;;;;;;2.50;1.40;;;18.90;99.90;;;;;;5078698;28;20499;-65
2023/07/15 07:08:48;;;;;;;1.50;1.40;;;18.90;99.90;;;;;;5075644;28;20079;-64
2023/07/15 07:11:15;;;;;;;1.85;1.45;;;19.00;99.90;;;;;;5079871;28;20032;-64
2023/07/15 07:13:43;;;;;;;2.58;1.25;;;19.10;99.90;;;;;;5077774;28;20078;-64
2023/07/15 07:16:10;;;;;;;1.30;1.20;;;19.20;99.90;;;;;;5073564;28;20045;-67
2023/07/15 07:18:37;;;;;;;2.65;1.35;;;19.10;99.90;;;;;;5074013;28;20387;-65
2023/07/15 07:21:04;;;;;;;1.92;1.50;;;19.30;99.90;;;;;;5075084;28;20437;-68
2023/07/15 07:23:31;;;;;;;1.33;1.23;;;19.30;99.90;;;;;;5072427;28;20466;-67
2023/07/15 07:25:59;;;;;;;1.30;1.20;;;19.30;99.90;;;;;;5072434;28;20093;-66
2023/07/15 07:28:43;;;;;;;1.33;1.23;;;19.40;99.90;;;;;;5072778;28;20075;-64
2023/07/15 07:31:12;;;;;;;1.65;1.25;;;19.40;99.90;;;;;;5081755;28;20032;-64
2023/07/15 07:33:41;;;;;;;2.58;1.67;;;19.60;99.90;;;;;;5075545;28;20055;-64
2023/07/15 07:36:09;;;;;;;2.35;1.40;;;19.60;99.90;;;;;;5075572;28;20127;-65
2023/07/15 07:38:36;;;;;;;1.40;1.13;;;19.40;99.90;;;;;;5078648;28;20788;-65
2023/07/15 07:41:07;;;;;;;2.28;1.38;;;19.50;99.90;;;;;;5079841;28;20048;-66
2023/07/15 07:43:36;;;;;;;1.95;1.85;;;19.50;99.90;;;;;;5071270;28;20044;-68
2023/07/15 07:46:04;;;;;;;1.42;1.33;;;19.50;99.90;;;;;;5074430;28;20143;-65
2023/07/15 07:48:32;;;;;;;1.50;1.40;;;19.50;99.90;;;;;;5079727;28;20093;-66
2023/07/15 07:51:00;;;;;;;2.45;1.23;;;19.50;99.90;;;;;;5076733;28;20067;-65
2023/07/15 07:53:27;;;;;;;1.17;1.05;;;19.50;99.90;;;;;;5073992;28;20094;-64
2023/07/15 07:55:54;;;;;;;2.95;1.08;;;19.40;99.90;;;;;;5077623;28;20166;-67
2023/07/15 07:58:21;;;;;;;1.98;1.45;;;19.50;99.90;;;;;;5078627;28;20044;-64
2023/07/15 08:00:48;;;;;;;1.10;1.00;;;19.40;99.90;;;;;;5080121;28;20539;-65
2023/07/15 08:03:15;;;;;;;2.47;1.35;;;19.50;99.90;;;;;;5079972;28;20055;-67
2023/07/15 08:05:47;;;;;;;1.67;1.58;;;19.60;99.90;;;;;;5075776;28;20462;-64
2023/07/15 08:08:14;;;;;;;1.48;1.38;;;19.80;99.90;;;;;;5077246;28;20151;-63
2023/07/15 08:10:42;;;;;;;3.05;1.40;;;19.90;99.90;;;;;;5080892;28;20063;-64
2023/07/15 08:13:09;;;;;;;1.40;1.30;;;19.90;99.90;;;;;;5073855;28;20039;-65
2023/07/15 08:15:37;;;;;;;2.03;1.17;;;20.10;99.90;;;;;;5077177;28;20064;-67
2023/07/15 08:18:04;;;;;;;1.10;1.08;;;19.90;99.90;;;;;;5075796;28;20055;-67
2023/07/15 08:20:32;;;;;;;2.25;2.05;;;20.00;99.90;;;;;;5076298;28;20057;-64
2023/07/15 08:22:59;;;;;;;1.33;1.23;;;20.10;99.90;;;;;;5080268;28;20145;-64
2023/07/15 08:25:27;;;;;;;1.80;1.70;;;20.10;99.90;;;;;;5077564;28;20558;-64
2023/07/15 08:27:54;;;;;;;3.22;1.50;;;20.10;99.90;;;;;;5080777;28;20056;-65
2023/07/15 08:30:21;;;;;;;2.10;1.10;;;19.90;99.90;;;;;;5076794;28;20284;-64
2023/07/15 08:32:49;;;;;;;1.33;1.23;;;19.90;99.90;;;;;;5075681;28;20078;-64
2023/07/15 08:35:16;;;;;;;2.83;1.65;;;20.00;99.90;;;;;;5066529;28;20131;-64
2023/07/15 08:37:42;;;;;;;1.30;1.10;;;20.00;99.90;;;;;;5081118;28;20040;-65
2023/07/15 08:40:11;;;;;;;1.85;1.58;;;20.10;99.90;;;;;;5073583;28;20122;-64
2023/07/15 08:42:39;;;;;;;1.55;1.38;;;20.10;99.90;;;;;;5075942;28;20066;-65
2023/07/15 08:45:06;;;;;;;1.65;1.50;;;20.10;99.90;;;;;;5071855;28;20638;-65
2023/07/15 08:47:33;;;;;;;1.40;1.30;;;20.10;99.90;;;;;;5073507;28;20033;-65
2023/07/15 08:50:03;;;;;;;1.40;1.25;;;20.20;99.90;;;;;;5075933;28;20490;-64
2023/07/15 08:52:31;;;;;;;2.58;2.38;;;20.20;99.90;;;;;;5077498;28;20046;-64
2023/07/15 08:54:59;;;;;;;1.60;1.50;;;20.10;99.90;;;;;;5073007;28;20058;-67
2023/07/15 08:57:26;;;;;;;2.78;1.48;;;20.20;99.90;;;;;;5077429;28;20517;-64
2023/07/15 08:59:54;;;;;;;3.05;1.58;;;20.20;99.90;;;;;;5076832;28;20040;-65
2023/07/15 09:02:22;;;;;;;2.75;1.63;;;20.30;99.90;;;;;;5075610;28;20040;-65
2023/07/15 09:04:49;;;;;;;1.38;1.10;;;20.50;99.90;;;;;;5077031;28;20036;-64
2023/07/15 09:07:26;;;;;;;1.35;1.20;;;20.80;99.90;;;;;;5075659;28;20486;-67
2023/07/15 09:09:53;;;;;;;1.55;1.45;;;21.00;99.90;;;;;;5082502;28;20060;-65
2023/07/15 09:12:26;;;;;;;2.58;1.17;;;21.30;99.90;;;;;;5072216;28;20040;-64
2023/07/15 09:14:54;;;;;;;3.30;1.23;;;21.40;99.90;;;;;;5081553;28;20063;-64
2023/07/15 09:17:23;;;;;;;2.40;1.08;;;21.70;99.90;;;;;;5076478;28;20078;-65
2023/07/15 09:19:51;;;;;;;3.67;2.00;;;21.80;99.90;;;;;;5079543;28;20474;-65
2023/07/15 09:22:19;;;;;;;1.50;1.40;;;21.90;99.90;;;;;;5079193;28;20044;-64
2023/07/15 09:24:46;;;;;;;1.58;1.15;;;22.00;99.90;;;;;;5074777;28;20097;-65
2023/07/15 09:27:12;;;;;;;1.55;1.00;;;22.00;99.90;;;;;;5078314;28;20040;-65
2023/07/15 09:29:39;;;;;;;1.50;1.40;;;22.00;99.90;;;;;;5075416;28;20044;-66
2023/07/15 09:32:08;;;;;;;2.17;1.20;;;22.00;99.90;;;;;;5077522;28;20077;-64
2023/07/15 09:34:50;;;;;;;3.63;1.40;;;22.00;99.90;;;;;;5076085;28;20417;-65
2023/07/15 09:37:30;;;;;;;1.17;1.08;;;22.10;99.90;;;;;;5076315;28;20052;-65
2023/07/15 09:39:59;;;;;;;3.97;1.92;;;22.20;99.90;;;;;;5072884;28;20787;-65
2023/07/15 09:42:27;;;;;;;2.63;1.17;;;22.30;99.90;;;;;;5076977;28;20109;-65
2023/07/15 09:44:55;;;;;;;4.20;1.50;;;22.10;99.90;;;;;;5074993;28;20036;-65
2023/07/15 09:47:23;;;;;;;3.58;1.70;;;22.00;99.90;;;;;;5077156;28;20044;-65
2023/07/15 09:49:50;;;;;;;2.70;1.80;;;22.00;99.90;;;;;;5077780;28;20055;-64
2023/07/15 09:52:17;;;;;;;2.88;1.77;;;21.80;99.90;;;;;;5074871;28;20048;-64
2023/07/15 09:54:44;;;;;;;1.85;1.75;;;21.80;99.90;;;;;;5075726;28;20060;-65
2023/07/15 09:57:15;;;;;;;1.48;1.10;;;21.90;99.90;;;;;;5075789;28;20048;-65
2023/07/15 09:59:45;;;;;;;2.50;1.73;;;21.90;99.90;;;;;;5078241;28;20046;-65
2023/07/15 10:02:25;;;;;;;;;;;21.70;99.90;;;;;;5073212;28;20036;-65
2023/07/15 10:05:02;;;;;;;1.95;1.35;;;21.60;99.90;;;;;;5075938;28;20046;-65
2023/07/15 10:07:30;;;;;;;1.98;1.63;;;21.60;99.90;;;;;;5074760;28;20045;-66
2023/07/15 10:10:00;;;;;;;2.75;1.25;;;21.80;99.90;;;;;;5070031;28;20055;-65
2023/07/15 10:12:28;;;;;;;5.60;1.75;;;22.10;99.90;;;;;;5073553;28;20186;-64
2023/07/15 10:14:56;;;;;;;2.00;1.42;;;22.10;99.90;;;;;;5076740;28;20037;-67
2023/07/15 10:17:23;;;;;;;2.97;1.42;;;22.00;99.90;;;;;;5072935;28;20036;-64
2023/07/15 10:19:52;;;;;;;2.10;1.30;;;22.00;99.90;;;;;;5078481;28;20083;-65
2023/07/15 10:22:23;;;;;;;1.30;1.20;;;21.90;99.90;;;;;;5077460;28;20037;-66
2023/07/15 10:24:55;;;;;;;1.65;1.40;;;21.90;99.90;;;;;;5072843;28;20048;-65
2023/07/15 10:27:26;;;;;;;2.55;1.30;;;21.80;99.90;;;;;;5075928;28;20048;-65
2023/07/15 10:30:15;;;;;;;3.42;1.35;;;21.90;99.90;;;;;;5079244;28;20454;-64
2023/07/15 10:33:01;;;;;;;2.03;1.35;;;22.00;99.90;;;;;;5075776;28;20127;-65
2023/07/15 10:35:41;;;;;;;2.40;1.25;;;22.00;99.90;;;;;;5075855;28;20056;-64
2023/07/15 10:38:26;;;;;;;2.75;2.55;;;22.00;99.90;;;;;;5077704;28;20072;-67
2023/07/15 10:40:56;;;;;;;1.13;1.10;;;22.00;99.90;;;;;;5075896;28;20060;-65
2023/07/15 10:43:44;;;;;;;3.80;1.55;;;22.00;99.90;;;;;;5077639;28;20044;-64
2023/07/15 10:46:12;;;;;;;2.08;1.25;;;22.00;99.90;;;;;;5060243;28;20117;-65
2023/07/15 10:48:40;;;;;;;1.15;1.05;;;21.90;99.90;;;;;;5075654;28;20134;-65
2023/07/15 10:51:09;;;;;;;2.90;1.92;;;22.10;99.90;;;;;;5071908;28;20048;-64
2023/07/15 10:53:36;;;;;;;5.78;1.90;;;22.20;99.90;;;;;;5069984;28;20052;-64
2023/07/15 10:56:11;;;;;;;2.45;2.08;;;22.20;99.90;;;;;;5071753;28;20036;-65
2023/07/15 10:58:43;;;;;;;1.67;1.45;;;22.10;99.90;;;;;;5072295;28;20361;-65
2023/07/15 11:01:12;;;;;;;2.88;1.88;;;22.10;99.90;;;;;;5078932;28;20048;-66
2023/07/15 11:03:41;;;;;;;3.17;1.17;;;22.20;99.90;;;;;;5075048;28;20620;-65
2023/07/15 11:06:09;;;;;;;4.93;1.75;;;22.10;99.90;;;;;;5077439;28;20036;-65
2023/07/15 11:08:39;;;;;;;3.78;1.98;;;22.10;99.90;;;;;;5081911;28;20044;-65
2023/07/15 11:11:12;;;;;;;2.53;1.60;;;22.10;99.90;;;;;;5079636;28;20587;-66
2023/07/15 11:13:41;;;;;;;2.97;1.23;;;22.00;99.90;;;;;;5079075;28;20036;-65
2023/07/15 11:16:08;;;;;;;4.10;2.20;;;22.00;99.90;;;;;;5061526;28;20051;-65
2023/07/15 11:18:35;;;;;;;2.60;1.98;;;22.20;99.90;;;;;;5079381;28;20048;-65
2023/07/15 11:21:02;;;;;;;4.05;1.92;;;22.40;99.90;;;;;;5082514;28;20063;-67
2023/07/15 11:23:30;;;;;;;3.72;1.45;;;22.50;99.90;;;;;;5076952;28;20453;-64
2023/07/15 11:26:06;;;;;;;2.45;1.77;;;22.50;99.90;;;;;;5080219;28;20048;-64
2023/07/15 11:28:33;;;;;;;3.60;1.80;;;22.40;99.90;;;;;;5078813;28;20047;-65
2023/07/15 11:30:59;;;;;;;4.78;1.48;;;22.30;99.90;;;;;;5079643;28;20799;-65
2023/07/15 11:33:26;;;;;;;2.30;1.30;;;22.40;99.90;;;;;;5074842;28;20063;-68
2023/07/15 11:35:53;;;;;;;3.03;1.42;;;22.10;99.90;;;;;;5059806;28;20455;-65
2023/07/15 11:38:33;;;;;;;3.63;1.83;;;21.90;99.90;;;;;;5078822;28;20036;-64
2023/07/15 11:41:01;;;;;;;6.50;2.28;;;22.00;99.90;;;;;;5077721;28;20398;-65
2023/07/15 11:43:30;;;;;;;1.35;0.90;;;22.20;99.90;;;;;;5078280;28;20040;-65
2023/07/15 11:45:58;;;;;;;2.20;1.73;;;22.30;99.90;;;;;;5076500;28;20050;-65
2023/07/15 11:48:27;;;;;;;3.60;1.38;;;21.90;99.90;;;;;;5079689;28;20056;-65
2023/07/15 11:51:05;;;;;;;2.65;1.50;;;21.90;99.90;;;;;;5075626;28;20047;-65
2023/07/15 11:53:34;;;;;;;2.22;1.15;;;22.20;99.90;;;;;;5075165;28;20145;-66
2023/07/15 11:56:01;;;;;;;2.35;1.48;;;22.40;99.90;;;;;;5081562;28;20535;-64
2023/07/15 11:58:38;;;;;;;3.08;1.58;;;22.40;99.90;;;;;;5077113;28;20072;-66
2023/07/15 12:01:16;;;;;;;2.45;1.40;;;22.60;99.90;;;;;;5076986;28;20046;-65
2023/07/15 12:03:44;;;;;;;2.40;1.40;;;22.70;99.90;;;;;;5075963;28;20058;-65
2023/07/15 12:06:23;;;;;;;3.38;1.23;;;22.50;99.90;;;;;;5078328;28;20118;-65
2023/07/15 12:09:03;;;;;;;1.95;1.00;;;22.40;99.90;;;;;;5082193;28;20513;-66
2023/07/15 12:11:31;;;;;;;;;;;22.40;99.90;;;;;;5083009;28;20123;-66
2023/07/15 12:14:01;;;;;;;2.08;1.25;;;22.50;99.90;;;;;;5071528;28;19931;-64
2023/07/15 12:16:29;;;;;;;2.80;1.58;;;22.70;99.90;;;;;;5076818;28;20054;-65
2023/07/15 12:18:57;;;;;;;2.20;1.20;;;22.50;99.90;;;;;;5079865;28;20056;-67
2023/07/15 12:21:25;;;;;;;1.85;1.20;;;22.50;99.90;;;;;;5081137;28;20123;-65
2023/07/15 12:23:52;;;;;;;2.38;1.27;;;22.40;99.90;;;;;;5077726;28;20047;-66
2023/07/15 12:26:19;;;;;;;2.53;2.33;;;22.50;99.90;;;;;;5081724;28;20633;-68
2023/07/15 12:28:46;;;;;;;3.03;1.10;;;22.70;99.90;;;;;;5076238;28;20115;-65
2023/07/15 12:31:14;;;;;;;2.17;2.00;;;22.70;99.90;;;;;;5078909;28;20032;-66
2023/07/15 12:33:42;;;;;;;2.75;1.85;;;22.50;99.90;;;;;;5076029;28;20052;-66
2023/07/15 12:36:11;;;;;;;5.05;1.35;;;22.50;99.90;;;;;;5080617;28;20495;-64
2023/07/15 12:38:38;;;;;;;2.35;1.45;;;22.40;99.90;;;;;;5081194;28;20151;-66
2023/07/15 12:41:07;;;;;;;2.03;1.73;;;22.40;99.90;;;;;;5074854;28;20036;-67
2023/07/15 12:43:34;;;;;;;2.33;2.13;;;22.50;99.90;;;;;;5075575;28;20441;-65
2023/07/15 12:46:02;;;;;;;2.75;1.85;;;22.40;99.90;;;;;;5075793;28;20053;-65
2023/07/15 12:48:30;;;;;;;1.80;1.50;;;22.40;99.90;;;;;;5075831;28;20478;-65
2023/07/15 12:50:57;;;;;;;1.48;1.38;;;22.30;99.90;;;;;;5080581;28;20048;-64
2023/07/15 12:53:25;;;;;;;4.43;1.35;;;22.30;99.90;;;;;;5077739;28;20401;-65
2023/07/15 12:55:54;;;;;;;1.75;1.40;;;22.50;99.90;;;;;;5081030;28;20147;-65
2023/07/15 12:58:21;;;;;;;2.63;1.30;;;22.70;99.90;;;;;;5076777;28;20055;-65